createdAt,value
2018-12-19T00:04:05.649Z,3.40
2018-12-19T00:09:19.792Z,3.30
2018-12-19T00:14:26.498Z,3.20
2018-12-19T00:19:31.139Z,3.00
2018-12-19T00:24:43.700Z,2.80
2018-12-19T00:29:52.169Z,2.70
2018-12-19T00:35:04.176Z,2.60
2018-12-19T00:40:11.858Z,2.50
2018-12-19T00:45:24.060Z,2.40
2018-12-19T00:50:32.431Z,2.30
2018-12-19T00:55:40.071Z,2.30
2018-12-19T01:00:48.991Z,1.20
2018-12-19T01:05:58.218Z,2.20
2018-12-19T01:11:05.112Z,2.20
2018-12-19T01:16:11.691Z,2.20
2018-12-19T01:21:19.233Z,2.10
2018-12-19T01:26:28.377Z,2.10
2018-12-19T01:31:34.259Z,2.00
2018-12-19T01:36:39.932Z,1.90
2018-12-19T01:41:50.331Z,1.90
2018-12-19T01:46:57.734Z,1.80
2018-12-19T01:52:04.900Z,1.80
2018-12-19T01:57:14.538Z,1.70
2018-12-19T02:02:24.249Z,1.70
2018-12-19T02:07:31.354Z,0.70
2018-12-19T02:12:39.544Z,1.60
2018-12-19T02:17:46.368Z,1.60
2018-12-19T02:22:52.655Z,1.50
2018-12-19T02:28:00.151Z,1.50
2018-12-19T02:33:07.703Z,1.40
2018-12-19T02:38:15.307Z,1.40
2018-12-19T02:43:23.004Z,1.30
2018-12-19T02:48:29.855Z,1.30
2018-12-19T02:53:36.375Z,1.30
2018-12-19T02:58:43.571Z,1.40
2018-12-19T03:03:51.573Z,1.40
2018-12-19T03:09:00.854Z,1.40
2018-12-19T03:14:07.839Z,1.40
2018-12-19T03:19:14.452Z,1.50
2018-12-19T03:24:25.319Z,1.40
2018-12-19T03:29:35.740Z,1.40
2018-12-19T03:34:42.633Z,1.40
2018-12-19T03:39:50.345Z,1.40
2018-12-19T03:45:00.372Z,1.50
2018-12-19T03:50:10.182Z,1.50
2018-12-19T03:55:20.202Z,1.60
2018-12-19T04:00:30.482Z,1.60
2018-12-19T04:05:38.919Z,1.50
2018-12-19T04:10:45.576Z,1.50
2018-12-19T04:15:58.271Z,1.40
2018-12-19T04:21:08.346Z,1.40
2018-12-19T04:26:17.298Z,1.50
2018-12-19T04:31:27.516Z,1.50
2018-12-19T04:36:37.057Z,1.60
2018-12-19T04:41:41.818Z,1.60
2018-12-19T04:46:50.656Z,1.60
2018-12-19T04:52:05.127Z,1.70
2018-12-19T04:57:13.943Z,1.80
2018-12-19T05:02:23.440Z,1.90
2018-12-19T05:07:31.942Z,2.00
2018-12-19T05:12:56.597Z,2.10
2018-12-19T05:18:03.445Z,2.20
2018-12-19T05:23:14.556Z,2.30
2018-12-19T05:28:21.640Z,2.40
2018-12-19T05:33:25.493Z,2.50
2018-12-19T05:38:44.587Z,2.50
2018-12-19T05:43:47.599Z,2.60
2018-12-19T05:48:56.494Z,2.70
2018-12-19T05:54:08.774Z,2.80
2018-12-19T05:59:15.233Z,2.90
2018-12-19T06:04:20.903Z,3.00
2018-12-19T06:09:23.804Z,3.10
2018-12-19T06:14:29.151Z,3.20
2018-12-19T06:19:35.226Z,3.30
2018-12-19T06:24:44.839Z,3.40
2018-12-19T06:29:51.648Z,3.40
2018-12-19T06:34:58.740Z,3.40
2018-12-19T06:40:11.161Z,3.60
2018-12-19T06:45:21.543Z,3.60
2018-12-19T06:50:28.103Z,3.70
2018-12-19T06:55:35.766Z,3.80
2018-12-19T07:00:42.020Z,3.80
2018-12-19T07:05:52.703Z,3.90
2018-12-19T07:11:03.594Z,3.80
2018-12-19T07:16:10.219Z,3.80
2018-12-19T07:21:19.982Z,3.80
2018-12-19T07:26:27.118Z,3.70
2018-12-19T07:31:32.384Z,3.60
2018-12-19T07:36:37.608Z,3.50
2018-12-19T07:41:46.794Z,3.60
2018-12-19T07:46:54.410Z,3.80
2018-12-19T07:52:01.718Z,3.90
2018-12-19T07:57:10.931Z,4.00
2018-12-19T08:02:14.318Z,4.00
2018-12-19T08:07:21.070Z,4.20
2018-12-19T08:12:36.023Z,4.20
2018-12-19T08:17:40.450Z,4.40
2018-12-19T08:22:50.353Z,4.40
2018-12-19T08:27:57.006Z,4.50
2018-12-19T08:33:07.139Z,4.70
2018-12-19T08:38:16.665Z,4.60
2018-12-19T08:43:23.511Z,4.60
2018-12-19T08:48:35.680Z,4.70
2018-12-19T08:53:42.725Z,4.70
2018-12-19T08:58:54.862Z,4.70
2018-12-19T09:04:04.230Z,4.80
2018-12-19T09:09:12.558Z,4.90
2018-12-19T09:14:19.736Z,4.90
2018-12-19T09:19:27.442Z,5.00
2018-12-19T09:24:34.454Z,5.00
2018-12-19T09:29:41.497Z,5.10
2018-12-19T09:34:48.110Z,5.30
2018-12-19T09:39:59.228Z,5.50
2018-12-19T09:45:11.528Z,5.80
2018-12-19T09:50:19.934Z,5.90
2018-12-19T09:55:26.643Z,5.90
2018-12-19T10:00:34.106Z,5.80
2018-12-19T10:05:41.622Z,5.80
2018-12-19T10:10:48.580Z,5.80
2018-12-19T10:15:55.386Z,5.70
2018-12-19T10:21:01.810Z,5.70
2018-12-19T10:26:11.962Z,5.80
2018-12-19T10:31:21.057Z,5.90
2018-12-19T10:36:32.677Z,6.10
2018-12-19T10:41:41.630Z,5.90
2018-12-19T10:46:52.219Z,6.00
2018-12-19T10:51:58.674Z,6.10
2018-12-19T10:57:06.086Z,6.20
2018-12-19T11:02:13.859Z,6.20
2018-12-19T11:07:21.438Z,6.20
2018-12-19T11:12:28.914Z,6.30
2018-12-19T11:17:35.862Z,6.30
2018-12-19T11:22:47.778Z,6.30
2018-12-19T11:27:57.278Z,6.30
2018-12-19T11:33:05.375Z,6.30
2018-12-19T11:38:13.354Z,6.30
2018-12-19T11:43:20.382Z,6.40
2018-12-19T11:53:31.042Z,6.20
2018-12-19T11:58:37.403Z,6.20
2018-12-19T12:03:43.898Z,6.00
2018-12-19T12:08:55.334Z,5.90
2018-12-19T12:14:02.314Z,5.80
2018-12-19T12:19:12.091Z,5.60
2018-12-19T12:24:23.883Z,5.50
2018-12-19T12:29:29.834Z,5.50
2018-12-19T12:34:39.027Z,5.50
2018-12-19T12:39:45.120Z,5.50
2018-12-19T12:44:52.216Z,5.60
2018-12-19T12:49:59.472Z,5.50
2018-12-19T12:55:06.183Z,5.60
2018-12-19T13:00:14.931Z,5.50
2018-12-19T13:05:23.773Z,5.50
2018-12-19T13:10:36.239Z,5.50
2018-12-19T13:15:46.778Z,5.50
2018-12-19T13:20:58.038Z,5.50
2018-12-19T13:26:07.210Z,5.50
2018-12-19T13:31:16.353Z,5.50
2018-12-19T13:36:23.790Z,5.50
2018-12-19T13:41:30.420Z,5.50
2018-12-19T13:46:37.686Z,5.50
2018-12-19T13:51:44.566Z,5.50
2018-12-19T13:56:51.791Z,5.50
2018-12-19T14:02:04.080Z,5.40
2018-12-19T14:07:12.479Z,5.40
2018-12-19T14:12:22.870Z,5.40
2018-12-19T14:17:29.041Z,5.40
2018-12-19T14:22:35.771Z,5.40
2018-12-19T14:27:43.608Z,5.40
2018-12-19T14:32:51.174Z,5.30
2018-12-19T14:37:57.639Z,5.30
2018-12-19T14:43:07.732Z,5.30
2018-12-19T14:48:15.939Z,5.30
2018-12-19T14:53:25.934Z,5.30
2018-12-19T14:58:28.730Z,5.20
2018-12-19T15:03:35.418Z,5.10
2018-12-19T15:08:46.307Z,5.00
2018-12-19T15:13:55.244Z,5.00
2018-12-19T15:19:05.358Z,4.80
2018-12-19T15:24:13.734Z,4.80
2018-12-19T15:29:29.838Z,4.80
2018-12-19T15:34:33.570Z,4.70
2018-12-19T15:39:39.521Z,4.80
2018-12-19T15:44:42.385Z,4.70
2018-12-19T15:49:49.474Z,4.60
2018-12-19T15:55:00.992Z,4.70
2018-12-19T16:05:43.646Z,4.60
2018-12-19T16:16:29.157Z,4.50
2018-12-19T16:21:36.575Z,4.60
2018-12-19T16:26:54.737Z,4.60
2018-12-19T16:37:44.762Z,4.40
2018-12-19T16:48:21.476Z,4.50
2018-12-19T17:09:08.935Z,4.40
2018-12-19T17:14:13.747Z,4.50
2018-12-19T17:19:17.611Z,4.60
2018-12-19T17:24:25.749Z,4.70
2018-12-19T17:29:30.027Z,4.70
2018-12-19T17:34:33.883Z,4.80
2018-12-19T17:39:36.898Z,4.80
2018-12-19T17:50:20.627Z,4.70
2018-12-19T17:55:26.484Z,4.70
2018-12-19T18:00:30.388Z,4.80
2018-12-19T18:05:39.175Z,4.80
2018-12-19T18:10:48.733Z,4.80
2018-12-19T18:15:55.067Z,4.90
2018-12-19T18:20:57.834Z,4.90
2018-12-19T18:26:04.104Z,4.90
2018-12-19T18:31:09.608Z,4.90
2018-12-19T18:47:21.033Z,4.80
2018-12-19T18:58:06.042Z,4.90
2018-12-19T19:03:15.085Z,4.90
2018-12-19T19:13:53.956Z,4.80
2018-12-19T19:18:56.810Z,4.70
2018-12-19T19:24:00.682Z,4.70
2018-12-19T19:29:09.379Z,4.70
2018-12-19T19:34:12.377Z,4.60
2018-12-19T19:39:16.376Z,4.50
2018-12-19T19:44:20.300Z,4.40
2018-12-19T19:49:24.741Z,4.50
2018-12-19T20:00:09.460Z,4.40
2018-12-19T20:05:18.249Z,4.30
2018-12-19T20:10:28.390Z,4.80
2018-12-19T20:21:15.357Z,4.90
2018-12-19T20:26:25.279Z,4.90
2018-12-19T20:31:30.713Z,4.90
2018-12-19T20:36:34.271Z,5.00
2018-12-19T20:41:43.043Z,5.10
2018-12-19T20:46:46.933Z,5.10
2018-12-19T20:51:50.746Z,5.10
2018-12-19T20:57:02.405Z,5.10
2018-12-19T21:02:08.918Z,5.10
2018-12-19T21:07:17.645Z,5.20
2018-12-19T21:12:28.910Z,5.10
2018-12-19T21:17:41.759Z,5.00
2018-12-19T21:22:47.781Z,5.10
2018-12-19T21:27:57.608Z,5.10
2018-12-19T21:33:13.967Z,5.10
2018-12-19T21:38:18.139Z,5.20
2018-12-19T21:43:26.918Z,5.20
2018-12-19T21:48:36.346Z,5.20
2018-12-19T21:53:45.584Z,5.30
2018-12-19T21:58:55.318Z,5.30
2018-12-19T22:04:06.600Z,5.10
2018-12-19T22:09:15.287Z,4.90
2018-12-19T22:14:24.659Z,4.80
2018-12-19T22:19:32.267Z,4.80
2018-12-19T22:24:41.120Z,5.00
2018-12-19T22:29:50.617Z,5.00
2018-12-19T22:34:57.650Z,5.00
2018-12-19T22:45:07.573Z,5.10
2018-12-19T23:00:23.762Z,5.20
2018-12-19T23:05:36.554Z,5.10
2018-12-19T23:10:44.486Z,5.10
2018-12-19T23:15:54.362Z,5.10
2018-12-19T23:21:02.657Z,5.00
2018-12-19T23:26:09.706Z,5.00
2018-12-19T23:31:20.974Z,5.00
2018-12-19T23:36:27.234Z,4.90
2018-12-19T23:41:32.620Z,4.90
2018-12-19T23:46:39.015Z,4.80
2018-12-19T23:51:49.190Z,4.80
2018-12-19T23:56:57.847Z,4.80
